createdAt,value
2023-03-13T00:01:00.521Z,0
2023-03-13T00:04:01.069Z,0
2023-03-13T00:07:00.683Z,0
2023-03-13T00:10:01.085Z,0
2023-03-13T00:13:00.014Z,0
2023-03-13T00:16:01.661Z,0
2023-03-13T00:19:00.234Z,0
2023-03-13T00:22:01.151Z,0
2023-03-13T00:25:00.542Z,0
2023-03-13T00:28:00.140Z,0
2023-03-13T00:31:00.466Z,0
2023-03-13T00:33:59.765Z,0
2023-03-13T00:37:00.652Z,0
2023-03-13T00:40:00.228Z,0
2023-03-13T00:43:02.661Z,0
2023-03-13T00:46:02.446Z,0
2023-03-13T00:49:01.066Z,0
2023-03-13T00:52:00.864Z,0
2023-03-13T00:55:00.012Z,0
2023-03-13T00:58:00.551Z,0
2023-03-13T01:01:01.535Z,0.3333333333333333
2023-03-13T01:04:01.196Z,0.3333333333333333
2023-03-13T01:07:00.360Z,0
2023-03-13T01:10:00.774Z,0
2023-03-13T01:13:01.526Z,0
2023-03-13T01:16:00.220Z,0
2023-03-13T01:19:00.729Z,0
2023-03-13T01:22:01.023Z,0
2023-03-13T01:25:01.148Z,0.3333333333333333
2023-03-13T01:28:00.870Z,0
2023-03-13T01:31:01.812Z,0
2023-03-13T01:34:01.058Z,0
2023-03-13T01:37:01.039Z,0
2023-03-13T01:40:00.288Z,0
2023-03-13T01:43:01.449Z,0
2023-03-13T01:46:00.372Z,0
2023-03-13T01:49:00.519Z,0
2023-03-13T01:52:02.927Z,0
2023-03-13T01:55:00.440Z,0
2023-03-13T01:58:03.362Z,0
2023-03-13T02:01:02.025Z,0
2023-03-13T02:03:59.673Z,0
2023-03-13T02:06:59.946Z,0
2023-03-13T02:10:01.127Z,0
2023-03-13T02:12:59.467Z,0
2023-03-13T02:16:01.398Z,0
2023-03-13T02:18:59.807Z,0
2023-03-13T02:22:00.938Z,0
2023-03-13T02:25:01.342Z,0
2023-03-13T02:28:00.234Z,0
2023-03-13T02:31:01.096Z,0.3333333333333333
2023-03-13T02:34:00.954Z,0
2023-03-13T02:36:59.889Z,0
2023-03-13T02:40:00.977Z,0
2023-03-13T02:43:01.000Z,0
2023-03-13T02:46:00.683Z,0
2023-03-13T02:49:00.549Z,0
2023-03-13T02:52:00.361Z,0.3333333333333333
2023-03-13T02:55:00.946Z,1
2023-03-13T02:58:00.902Z,0
2023-03-13T03:01:00.666Z,0
2023-03-13T03:03:59.807Z,0
2023-03-13T03:07:00.635Z,0
2023-03-13T03:10:01.539Z,0
2023-03-13T03:13:00.020Z,0
2023-03-13T03:16:00.868Z,0
2023-03-13T03:19:01.406Z,0
2023-03-13T03:22:01.339Z,0
2023-03-13T03:25:00.536Z,0
2023-03-13T03:28:00.361Z,0
2023-03-13T03:31:00.931Z,0
2023-03-13T03:34:00.641Z,0
2023-03-13T03:36:59.855Z,0
2023-03-13T03:40:00.394Z,1
2023-03-13T03:43:00.551Z,0
2023-03-13T03:46:01.281Z,0
2023-03-13T03:49:00.799Z,0.3333333333333333
2023-03-13T03:52:00.356Z,0
2023-03-13T03:55:01.116Z,0
2023-03-13T03:58:00.913Z,0
2023-03-13T04:01:00.890Z,0
2023-03-13T04:04:00.998Z,0
2023-03-13T04:07:00.280Z,0
2023-03-13T04:10:00.609Z,0
2023-03-13T04:13:00.536Z,0
2023-03-13T04:15:59.642Z,0
2023-03-13T04:18:59.817Z,0
2023-03-13T04:22:00.526Z,0.3333333333333333
2023-03-13T04:25:00.553Z,0
2023-03-13T04:28:02.198Z,0
2023-03-13T04:31:01.312Z,0
2023-03-13T04:34:00.379Z,0
2023-03-13T04:37:00.776Z,0
2023-03-13T04:40:02.312Z,1.3333333333333333
2023-03-13T04:43:02.108Z,0
2023-03-13T04:46:01.318Z,0
2023-03-13T04:48:59.912Z,0
2023-03-13T04:52:01.346Z,0
2023-03-13T04:55:00.002Z,0.3333333333333333
2023-03-13T04:58:00.978Z,0.3333333333333333
2023-03-13T05:01:00.871Z,0
2023-03-13T05:04:01.397Z,0
2023-03-13T05:07:02.555Z,0
2023-03-13T05:10:00.169Z,0
2023-03-13T05:13:00.574Z,0
2023-03-13T05:16:01.552Z,0
2023-03-13T05:19:00.343Z,0
2023-03-13T05:22:00.659Z,0.6666666666666666
2023-03-13T05:25:02.828Z,0.3333333333333333
2023-03-13T05:28:00.889Z,1.6666666666666667
2023-03-13T05:31:00.847Z,1.3333333333333333
2023-03-13T05:34:00.522Z,4.333333333333333
2023-03-13T05:37:00.856Z,8
2023-03-13T05:40:00.206Z,5
2023-03-13T05:43:00.919Z,7
2023-03-13T05:46:00.697Z,10
2023-03-13T05:49:01.514Z,13.333333333333334
2023-03-13T05:52:02.848Z,14
2023-03-13T05:55:04.084Z,25
2023-03-13T05:58:02.640Z,32.666666666666664
2023-03-13T06:01:07.604Z,29.333333333333332
2023-03-13T06:03:59.028Z,28.666666666666668
2023-03-13T06:07:01.344Z,25.333333333333332
2023-03-13T06:10:00.317Z,23
2023-03-13T06:13:18.641Z,26.666666666666668
2023-03-13T06:16:08.164Z,34.666666666666664
2023-03-13T06:19:05.640Z,50
2023-03-13T06:21:59.901Z,70.66666666666667
2023-03-13T06:25:01.069Z,76.33333333333333
2023-03-13T06:28:02.104Z,90.66666666666667
2023-03-13T06:31:04.377Z,103
2023-03-13T06:34:04.222Z,77.33333333333333
2023-03-13T06:37:00.561Z,83.66666666666667
2023-03-13T06:40:01.326Z,86.66666666666667
2023-03-13T06:43:01.890Z,112.66666666666667
2023-03-13T06:46:03.733Z,105.66666666666667
2023-03-13T06:49:01.200Z,96
2023-03-13T06:52:01.242Z,212.33333333333334
2023-03-13T06:55:02.196Z,268.6666666666667
2023-03-13T06:58:01.527Z,314
2023-03-13T07:01:02.060Z,371.3333333333333
2023-03-13T07:04:01.525Z,430.6666666666667
2023-03-13T07:07:01.552Z,451
2023-03-13T07:10:02.248Z,485.3333333333333
2023-03-13T07:13:00.810Z,571.6666666666666
2023-03-13T07:16:01.122Z,579.3333333333334
2023-03-13T07:19:01.346Z,554.6666666666666
2023-03-13T07:22:00.651Z,459
2023-03-13T07:25:00.873Z,368
2023-03-13T07:28:01.127Z,382.6666666666667
2023-03-13T07:31:01.674Z,353
2023-03-13T07:34:00.948Z,265.6666666666667
2023-03-13T07:37:00.898Z,277
2023-03-13T07:40:00.948Z,304.6666666666667
2023-03-13T07:43:03.478Z,282.6666666666667
2023-03-13T07:46:01.118Z,228.33333333333334
2023-03-13T07:49:01.234Z,262
2023-03-13T07:52:00.910Z,271
2023-03-13T07:55:00.819Z,336.6666666666667
2023-03-13T07:58:00.025Z,304.6666666666667
2023-03-13T08:01:01.214Z,304
2023-03-13T08:04:00.907Z,320.6666666666667
2023-03-13T08:07:00.498Z,299
2023-03-13T08:10:00.986Z,263
2023-03-13T08:13:00.804Z,187
2023-03-13T08:16:00.858Z,137.33333333333334
2023-03-13T08:19:00.466Z,143
2023-03-13T08:22:01.137Z,188.66666666666666
2023-03-13T08:25:01.268Z,222.33333333333334
2023-03-13T08:28:02.530Z,232
2023-03-13T08:31:01.132Z,231.33333333333334
2023-03-13T08:34:01.395Z,272.6666666666667
2023-03-13T08:37:00.861Z,305
2023-03-13T08:40:00.811Z,355.3333333333333
2023-03-13T08:43:00.938Z,382.3333333333333
2023-03-13T08:46:01.032Z,392.6666666666667
2023-03-13T08:49:00.894Z,452.6666666666667
2023-03-13T08:52:01.576Z,459.3333333333333
2023-03-13T08:55:00.476Z,460
2023-03-13T08:58:00.979Z,465.3333333333333
2023-03-13T09:01:01.708Z,477.3333333333333
2023-03-13T09:04:03.469Z,520.6666666666666
2023-03-13T09:07:00.273Z,640.6666666666666
2023-03-13T09:10:00.834Z,752.3333333333334
2023-03-13T09:13:01.032Z,821
2023-03-13T09:16:00.891Z,870
2023-03-13T09:19:00.746Z,926
2023-03-13T09:22:00.814Z,940
2023-03-13T09:25:01.521Z,946.6666666666666
2023-03-13T09:28:00.865Z,946
2023-03-13T09:31:01.341Z,928.3333333333334
2023-03-13T09:34:01.015Z,874.6666666666666
2023-03-13T09:37:00.852Z,910.6666666666666
2023-03-13T09:40:01.164Z,937
2023-03-13T09:43:00.450Z,943.3333333333334
2023-03-13T09:46:01.148Z,946.6666666666666
2023-03-13T09:49:01.606Z,944.3333333333334
2023-03-13T09:52:00.707Z,913.6666666666666
2023-03-13T09:55:00.440Z,883.6666666666666
2023-03-13T09:58:00.628Z,914.6666666666666
2023-03-13T10:01:01.821Z,933
2023-03-13T10:04:00.756Z,944.6666666666666
2023-03-13T10:07:00.800Z,952.6666666666666
2023-03-13T10:10:00.208Z,935
2023-03-13T10:13:00.919Z,948.3333333333334
2023-03-13T10:16:01.479Z,943.3333333333334
2023-03-13T10:19:01.279Z,922.3333333333334
2023-03-13T10:22:00.904Z,935.6666666666666
2023-03-13T10:25:00.678Z,935
2023-03-13T10:28:00.669Z,880
2023-03-13T10:31:01.057Z,914.6666666666666
2023-03-13T10:33:59.870Z,871
2023-03-13T10:37:00.561Z,629
2023-03-13T10:40:01.523Z,697.3333333333334
2023-03-13T10:43:02.529Z,876.6666666666666
2023-03-13T10:46:00.280Z,951.3333333333334
2023-03-13T10:49:01.568Z,947.3333333333334
2023-03-13T10:52:01.104Z,940.6666666666666
2023-03-13T10:55:00.943Z,947.3333333333334
2023-03-13T10:58:01.105Z,946.6666666666666
2023-03-13T11:01:01.180Z,901.6666666666666
2023-03-13T11:04:19.465Z,919.3333333333334
2023-03-13T11:07:00.910Z,873.6666666666666
2023-03-13T11:10:01.441Z,914.6666666666666
2023-03-13T11:13:00.923Z,950.3333333333334
2023-03-13T11:16:00.478Z,945.6666666666666
2023-03-13T11:19:00.753Z,939.3333333333334
2023-03-13T11:22:00.694Z,937.3333333333334
2023-03-13T11:25:01.127Z,827.6666666666666
2023-03-13T11:28:00.258Z,919.6666666666666
2023-03-13T11:31:01.327Z,912
2023-03-13T11:33:59.816Z,945
2023-03-13T11:37:00.337Z,949.6666666666666
2023-03-13T11:40:01.697Z,942.6666666666666
2023-03-13T11:43:03.338Z,787.3333333333334
2023-03-13T11:46:02.097Z,856.3333333333334
2023-03-13T11:49:00.466Z,873
2023-03-13T11:52:00.622Z,864.6666666666666
2023-03-13T11:55:01.837Z,785.3333333333334
2023-03-13T11:58:00.306Z,698.6666666666666
2023-03-13T12:01:00.651Z,838
2023-03-13T12:04:00.987Z,890.3333333333334
2023-03-13T12:07:03.552Z,748.6666666666666
2023-03-13T12:10:00.937Z,547.6666666666666
2023-03-13T12:13:00.548Z,475.3333333333333
2023-03-13T12:16:00.490Z,422.3333333333333
2023-03-13T12:19:02.201Z,562.6666666666666
2023-03-13T12:22:02.541Z,575
2023-03-13T12:25:01.935Z,537.3333333333334
2023-03-13T12:28:00.788Z,548
2023-03-13T12:31:01.697Z,629.6666666666666
2023-03-13T12:34:00.781Z,765.3333333333334
2023-03-13T12:37:00.815Z,696.3333333333334
2023-03-13T12:40:00.422Z,780.6666666666666
2023-03-13T12:43:00.984Z,854
2023-03-13T12:46:01.043Z,737.3333333333334
2023-03-13T12:49:01.015Z,804.3333333333334
2023-03-13T12:52:01.543Z,796.3333333333334
2023-03-13T12:55:00.401Z,771.3333333333334
2023-03-13T12:58:01.079Z,785
2023-03-13T13:01:01.605Z,742.6666666666666
2023-03-13T13:04:00.867Z,723
2023-03-13T13:07:00.475Z,656
2023-03-13T13:10:02.108Z,718.3333333333334
2023-03-13T13:13:00.833Z,725.6666666666666
2023-03-13T13:16:02.042Z,714.3333333333334
2023-03-13T13:19:01.046Z,687
2023-03-13T13:22:00.873Z,617.6666666666666
2023-03-13T13:25:01.209Z,595.3333333333334
2023-03-13T13:28:06.202Z,638
2023-03-13T13:31:00.936Z,641.6666666666666
2023-03-13T13:34:00.312Z,680
2023-03-13T13:37:01.174Z,699
2023-03-13T13:40:00.411Z,684.6666666666666
2023-03-13T13:43:01.517Z,756.6666666666666
2023-03-13T13:46:02.947Z,828.6666666666666
2023-03-13T13:49:01.738Z,868.3333333333334
2023-03-13T13:52:00.311Z,932.6666666666666
2023-03-13T13:55:02.846Z,916.6666666666666
2023-03-13T13:58:01.783Z,873
2023-03-13T14:01:01.258Z,844.3333333333334
2023-03-13T14:04:00.555Z,814.3333333333334
2023-03-13T14:07:00.755Z,812.6666666666666
2023-03-13T14:10:01.011Z,788
2023-03-13T14:13:01.320Z,770.6666666666666
2023-03-13T14:16:00.512Z,783
2023-03-13T14:19:01.342Z,756.3333333333334
2023-03-13T14:22:00.625Z,772.6666666666666
2023-03-13T14:25:02.173Z,720.3333333333334
2023-03-13T14:28:01.776Z,684.6666666666666
2023-03-13T14:31:04.466Z,652.3333333333334
2023-03-13T14:34:00.660Z,674.3333333333334
2023-03-13T14:37:16.818Z,710.3333333333334
2023-03-13T14:40:00.999Z,682.6666666666666
2023-03-13T14:43:02.397Z,628.3333333333334
2023-03-13T14:46:01.464Z,594
2023-03-13T14:49:00.643Z,583
2023-03-13T14:52:00.632Z,478.6666666666667
2023-03-13T14:55:01.839Z,441.6666666666667
2023-03-13T14:58:03.586Z,455
2023-03-13T15:01:04.295Z,587.6666666666666
2023-03-13T15:04:01.773Z,695
2023-03-13T15:07:01.830Z,626.3333333333334
2023-03-13T15:10:00.327Z,614.6666666666666
2023-03-13T15:13:01.488Z,530.6666666666666
2023-03-13T15:16:00.544Z,584
2023-03-13T15:19:00.799Z,532
2023-03-13T15:22:00.645Z,437.6666666666667
2023-03-13T15:25:06.559Z,386.3333333333333
2023-03-13T15:28:04.702Z,319
2023-03-13T15:31:00.004Z,342.6666666666667
2023-03-13T15:34:01.124Z,266
2023-03-13T15:37:00.159Z,259
2023-03-13T15:40:02.131Z,348.6666666666667
2023-03-13T15:43:01.962Z,396.6666666666667
2023-03-13T15:46:03.731Z,365
2023-03-13T15:49:01.674Z,283.6666666666667
2023-03-13T15:52:02.078Z,216.33333333333334
2023-03-13T15:55:01.772Z,220.66666666666666
2023-03-13T15:58:01.433Z,258.3333333333333
2023-03-13T16:01:01.845Z,313.3333333333333
2023-03-13T16:04:00.431Z,334.3333333333333
2023-03-13T16:07:00.410Z,325
2023-03-13T16:10:01.446Z,271.3333333333333
2023-03-13T16:13:01.488Z,233.66666666666666
2023-03-13T16:16:01.778Z,229.33333333333334
2023-03-13T16:19:02.559Z,217.33333333333334
2023-03-13T16:22:00.885Z,221.33333333333334
2023-03-13T16:24:59.900Z,211
2023-03-13T16:28:00.298Z,236
2023-03-13T16:31:03.395Z,222.66666666666666
2023-03-13T16:34:02.052Z,195.33333333333334
2023-03-13T16:37:01.810Z,168.66666666666666
2023-03-13T16:40:01.725Z,153
2023-03-13T16:43:01.146Z,138
2023-03-13T16:46:02.912Z,126.66666666666667
2023-03-13T16:49:01.777Z,122
2023-03-13T16:52:01.036Z,115
2023-03-13T16:55:01.866Z,100.66666666666667
2023-03-13T16:58:02.763Z,80.66666666666667
2023-03-13T17:01:05.991Z,64
2023-03-13T17:04:02.150Z,49
2023-03-13T17:07:01.422Z,39
2023-03-13T17:10:01.606Z,30
2023-03-13T17:13:07.368Z,24
2023-03-13T17:16:02.776Z,19.333333333333332
2023-03-13T17:19:01.771Z,15
2023-03-13T17:22:02.898Z,11.666666666666666
2023-03-13T17:25:01.494Z,7
2023-03-13T17:28:01.807Z,5
2023-03-13T17:31:02.926Z,3.3333333333333335
2023-03-13T17:34:00.910Z,2
2023-03-13T17:37:01.608Z,0.3333333333333333
2023-03-13T17:40:01.465Z,0
2023-03-13T17:43:01.431Z,0.3333333333333333
2023-03-13T17:46:02.408Z,0
2023-03-13T17:49:01.728Z,0
2023-03-13T17:52:02.771Z,0
2023-03-13T17:55:01.325Z,0
2023-03-13T17:58:01.362Z,0
2023-03-13T18:01:02.155Z,0
2023-03-13T18:04:01.403Z,0
2023-03-13T18:07:03.139Z,0
2023-03-13T18:10:01.892Z,0.3333333333333333
2023-03-13T18:13:01.534Z,1.3333333333333333
2023-03-13T18:16:00.145Z,0
2023-03-13T18:19:00.534Z,0
2023-03-13T18:22:06.306Z,0
2023-03-13T18:25:03.087Z,0
2023-03-13T18:28:02.011Z,0
2023-03-13T18:31:08.206Z,0
2023-03-13T18:34:06.297Z,0
2023-03-13T18:37:03.381Z,0
2023-03-13T18:40:02.912Z,0
2023-03-13T18:43:02.408Z,0
2023-03-13T18:46:05.067Z,0.3333333333333333
2023-03-13T18:49:01.974Z,0
2023-03-13T18:52:01.437Z,0
2023-03-13T18:55:03.477Z,0
2023-03-13T18:58:02.054Z,0
2023-03-13T19:01:33.387Z,0
2023-03-13T19:04:03.398Z,0
2023-03-13T19:07:03.670Z,0
2023-03-13T19:10:01.211Z,0
2023-03-13T19:13:00.227Z,0
2023-03-13T19:16:02.103Z,0
2023-03-13T19:19:01.087Z,0
2023-03-13T19:22:00.239Z,0
2023-03-13T19:25:00.924Z,0
2023-03-13T19:28:01.089Z,0
2023-03-13T19:31:01.125Z,0
2023-03-13T19:34:00.285Z,0
2023-03-13T19:36:58.258Z,0
2023-03-13T19:40:01.254Z,0.3333333333333333
2023-03-13T19:43:00.239Z,0.3333333333333333
2023-03-13T19:46:00.937Z,0
2023-03-13T19:49:01.191Z,0
2023-03-13T19:52:00.716Z,0
2023-03-13T19:55:03.127Z,0
2023-03-13T19:58:00.013Z,0
2023-03-13T20:01:15.135Z,0.6666666666666666
2023-03-13T20:04:01.056Z,0
2023-03-13T20:07:00.573Z,0
2023-03-13T20:10:01.636Z,0
2023-03-13T20:13:00.439Z,0.6666666666666666
2023-03-13T20:15:59.851Z,0
2023-03-13T20:19:00.537Z,0
2023-03-13T20:22:00.347Z,0.3333333333333333
2023-03-13T20:25:00.624Z,0
2023-03-13T20:28:00.048Z,0
2023-03-13T20:31:00.500Z,0
2023-03-13T20:34:05.519Z,0
2023-03-13T20:37:00.247Z,0
2023-03-13T20:40:02.447Z,0
2023-03-13T20:43:00.763Z,0
2023-03-13T20:46:02.305Z,0
2023-03-13T20:49:01.151Z,0
2023-03-13T20:52:00.904Z,0.6666666666666666
2023-03-13T20:55:00.783Z,0
2023-03-13T20:57:59.872Z,0
2023-03-13T21:01:01.925Z,0
2023-03-13T21:04:01.978Z,0
2023-03-13T21:06:59.966Z,0
2023-03-13T21:10:01.702Z,1
2023-03-13T21:13:00.477Z,0
2023-03-13T21:16:02.887Z,0
2023-03-13T21:19:00.456Z,0
2023-03-13T21:22:00.998Z,0
2023-03-13T21:25:00.503Z,0
2023-03-13T21:28:01.008Z,0
2023-03-13T21:31:01.707Z,0
2023-03-13T21:34:00.047Z,0
2023-03-13T21:37:01.250Z,0
2023-03-13T21:40:00.670Z,0
2023-03-13T21:43:00.326Z,0
2023-03-13T21:46:01.296Z,0
2023-03-13T21:49:00.129Z,0
2023-03-13T21:52:00.123Z,0
2023-03-13T21:55:00.123Z,0
2023-03-13T21:58:00.879Z,0
2023-03-13T22:01:02.400Z,0
2023-03-13T22:03:59.858Z,0
2023-03-13T22:06:59.950Z,0
2023-03-13T22:10:01.168Z,0
2023-03-13T22:13:01.568Z,0.3333333333333333
2023-03-13T22:16:00.335Z,0.6666666666666666
2023-03-13T22:19:02.178Z,0
2023-03-13T22:22:00.576Z,0
2023-03-13T22:25:01.215Z,0
2023-03-13T22:28:00.843Z,0
2023-03-13T22:31:01.269Z,0
2023-03-13T22:34:01.648Z,0
2023-03-13T22:37:02.127Z,0
2023-03-13T22:40:00.646Z,0
2023-03-13T22:43:01.556Z,0
2023-03-13T22:46:01.200Z,0.3333333333333333
2023-03-13T22:49:01.093Z,0
2023-03-13T22:52:00.104Z,0
2023-03-13T22:55:00.399Z,0
2023-03-13T22:58:00.875Z,0
2023-03-13T23:01:01.776Z,0
2023-03-13T23:04:00.919Z,0
2023-03-13T23:07:01.076Z,0
2023-03-13T23:10:00.387Z,0
2023-03-13T23:13:01.027Z,0
2023-03-13T23:16:01.027Z,0
2023-03-13T23:19:00.986Z,0
2023-03-13T23:22:00.727Z,0
2023-03-13T23:25:00.736Z,0
2023-03-13T23:28:01.451Z,0.3333333333333333
2023-03-13T23:31:00.864Z,0
2023-03-13T23:34:00.886Z,0
2023-03-13T23:37:02.237Z,0
2023-03-13T23:40:01.468Z,0
2023-03-13T23:43:00.336Z,0
2023-03-13T23:46:00.904Z,0
2023-03-13T23:49:00.838Z,0.3333333333333333
2023-03-13T23:52:00.596Z,0
2023-03-13T23:55:00.714Z,0
2023-03-13T23:58:00.633Z,0
